Pagrindinis puslapis
METAR-TAF:

METAR-TAF

Oro uostai :

Izumo, Japonija

platuma: 35-25N, ilguma: 132-54E, Aukštis: 2 m

Dabartinis oras

Ataskaita buvo paskelbta 40 minutes, ne 06:00 UTC
Vėjas 15 kt iš Rytų/Šiaurės Rytų
Temperatūra 24°C
Drėgmė 61%
Slėgis 1016 hPa
Matomumas 10 km arba daugiau
Mažai debesys ne aukštis 3500 ft
Su prošvaistėmis

METAR: RJOC 300600Z 07015KT 9999 FEW035 BKN/// 24/16 Q1016

Laikas: 15:40 (06:40 UTC)

Prognozė

Ataskaita buvo paskelbta 1 valandą ir 31 minutes, ne 05:09 UTC
Prognozė galioja nuo 30 metu 06 UTC su 31 metu 12 UTC
Vėjas 12 kt iš Rytų
Matomumas 10 km arba daugiau
Mažai debesys ne aukštis 3500 ft
Tapsmas
nuo 30 metu 11 UTC su 30 metu 13 UTC
Vėjas 5 kt iš Pietų
Tapsmas
nuo 31 metu 00 UTC su 31 metu 03 UTC
Vėjas 5 kt iš Rytų

TAF: RJOC 300509Z 3006/3112 08012KT 9999 FEW035 BECMG 3011/3013 17005KT BECMG 3100/3103 08005KT

Orai ataskaitas ir orų prognozės (METAR, TAF).

turimą stotys yra geltonos ir raudonos taškus žemėlapyje.

Perkelti pele per norėdami pamatyti stoties vardą.

Tada spustelėkite, norėdami matyti oro stebėjimo ir prognozės.

Norėdami pakeisti žemėlapį: spustelėkite ant žalios mygtukų su juodo kryžiaus žemyn,; žalią mygtuką su brūkšneliu, jei norite nutolinti; arba žalių rodyklių gretimoms žemėlapius.


METAR-TAF: